createdAt,value
2023-02-07T00:01:23.045Z,3.00
2023-02-07T00:04:26.240Z,3.10
2023-02-07T00:07:29.273Z,3.07
2023-02-07T00:10:32.477Z,2.97
2023-02-07T00:13:36.283Z,3.50
2023-02-07T00:16:43.429Z,2.83
2023-02-07T00:19:46.210Z,3.20
2023-02-07T00:22:49.296Z,2.93
2023-02-07T00:25:52.003Z,3.30
2023-02-07T00:28:57.490Z,3.30
2023-02-07T00:32:04.111Z,3.40
2023-02-07T00:35:10.415Z,3.03
2023-02-07T00:38:13.099Z,4.00
2023-02-07T00:41:20.141Z,3.13
2023-02-07T00:44:22.981Z,3.60
2023-02-07T00:47:27.208Z,3.17
2023-02-07T00:50:39.258Z,3.80
2023-02-07T00:53:44.298Z,3.70
2023-02-07T00:56:47.046Z,3.90
2023-02-07T00:59:49.799Z,3.73
2023-02-07T01:02:53.818Z,4.40
2023-02-07T01:05:59.748Z,3.00
2023-02-07T01:09:05.355Z,4.10
2023-02-07T01:12:15.849Z,2.23
2023-02-07T01:15:18.972Z,4.93
2023-02-07T01:18:23.030Z,5.33
2023-02-07T01:21:27.705Z,4.70
2023-02-07T01:24:31.005Z,3.63
2023-02-07T01:27:34.208Z,4.90
2023-02-07T01:30:39.396Z,4.93
2023-02-07T01:33:43.515Z,4.17
2023-02-07T01:36:46.429Z,3.87
2023-02-07T01:39:50.761Z,4.40
2023-02-07T01:42:53.557Z,5.30
2023-02-07T01:45:56.276Z,5.47
2023-02-07T01:49:13.176Z,3.77
2023-02-07T01:52:19.356Z,5.27
2023-02-07T01:55:27.329Z,5.03
2023-02-07T01:58:30.578Z,6.10
2023-02-07T02:01:37.099Z,5.50
2023-02-07T02:04:44.053Z,3.73
2023-02-07T02:07:46.718Z,4.80
2023-02-07T02:11:03.685Z,5.53
2023-02-07T02:14:14.817Z,5.43
2023-02-07T02:17:29.318Z,4.40
2023-02-07T02:21:19.773Z,6.70
2023-02-07T02:24:55.349Z,5.40
2023-02-07T02:28:35.164Z,5.17
2023-02-07T02:32:04.731Z,4.93
2023-02-07T02:35:17.925Z,5.33
2023-02-07T02:38:27.926Z,6.07
2023-02-07T02:41:38.197Z,5.87
2023-02-07T02:44:49.049Z,5.67
2023-02-07T02:47:52.734Z,5.80
2023-02-07T02:50:57.553Z,5.93
2023-02-07T02:54:03.371Z,4.90
2023-02-07T02:57:24.492Z,5.93
2023-02-07T03:00:42.897Z,4.93
2023-02-07T03:04:17.353Z,5.33
2023-02-07T03:07:41.260Z,4.17
2023-02-07T03:10:54.748Z,6.47
2023-02-07T03:14:03.650Z,6.63
2023-02-07T03:17:16.365Z,6.90
2023-02-07T03:20:21.778Z,6.80
2023-02-07T03:23:25.857Z,5.60
2023-02-07T03:26:30.838Z,7.33
2023-02-07T03:29:35.340Z,6.73
2023-02-07T03:32:45.364Z,8.40
2023-02-07T03:35:54.746Z,7.53
2023-02-07T03:38:59.836Z,8.53
2023-02-07T03:42:07.279Z,7.97
2023-02-07T03:45:14.527Z,6.47
2023-02-07T03:48:24.759Z,8.00
2023-02-07T03:51:27.407Z,6.40
2023-02-07T03:54:32.213Z,8.47
2023-02-07T03:57:38.524Z,9.50
2023-02-07T04:00:41.385Z,9.30
2023-02-07T04:03:51.366Z,8.73
2023-02-07T04:06:54.306Z,8.73
2023-02-07T04:09:58.370Z,8.90
2023-02-07T04:13:10.583Z,9.30
2023-02-07T04:16:13.549Z,8.77
2023-02-07T04:19:17.537Z,9.57
2023-02-07T04:22:20.515Z,7.70
2023-02-07T04:25:24.506Z,9.67
2023-02-07T04:28:29.142Z,9.07
2023-02-07T04:31:34.027Z,8.27
2023-02-07T04:34:36.766Z,6.27
2023-02-07T04:37:41.611Z,9.83
2023-02-07T04:40:45.658Z,8.97
2023-02-07T04:43:50.676Z,9.63
2023-02-07T04:46:53.417Z,8.33
2023-02-07T04:49:56.087Z,9.93
2023-02-07T04:52:58.752Z,8.07
2023-02-07T04:56:27.838Z,10.87
2023-02-07T04:59:30.654Z,9.13
2023-02-07T05:02:34.136Z,10.03
2023-02-07T05:05:39.654Z,10.57
2023-02-07T05:08:42.924Z,10.43
2023-02-07T05:11:46.986Z,10.83
2023-02-07T05:14:51.964Z,7.87
2023-02-07T05:17:54.715Z,10.73
2023-02-07T05:20:57.398Z,10.63
2023-02-07T05:24:00.131Z,10.13
2023-02-07T05:27:04.725Z,8.67
2023-02-07T05:30:09.059Z,10.30
2023-02-07T05:33:12.255Z,11.80
2023-02-07T05:36:17.951Z,11.83
2023-02-07T05:39:20.661Z,12.93
2023-02-07T05:42:27.316Z,11.57
2023-02-07T05:45:32.788Z,10.47
2023-02-07T05:48:35.461Z,12.47
2023-02-07T05:51:40.409Z,15.67
2023-02-07T05:54:43.126Z,12.50
2023-02-07T05:57:47.493Z,14.07
2023-02-07T06:00:50.445Z,13.30
2023-02-07T06:03:53.147Z,13.10
2023-02-07T06:06:55.950Z,10.60
2023-02-07T06:09:58.633Z,11.17
2023-02-07T06:13:05.852Z,11.57
2023-02-07T06:16:09.890Z,14.60
2023-02-07T06:19:15.449Z,11.90
2023-02-07T06:22:26.085Z,11.27
2023-02-07T06:25:28.754Z,11.23
2023-02-07T06:28:32.889Z,12.47
2023-02-07T06:31:35.626Z,15.00
2023-02-07T06:34:38.330Z,17.20
2023-02-07T06:37:41.035Z,13.10
2023-02-07T06:40:44.651Z,14.07
2023-02-07T06:43:51.932Z,13.03
2023-02-07T06:46:54.565Z,15.00
2023-02-07T06:49:57.292Z,14.17
2023-02-07T06:53:02.026Z,14.33
2023-02-07T06:56:05.205Z,11.77
2023-02-07T06:59:11.922Z,12.10
2023-02-07T07:02:15.189Z,14.13
2023-02-07T07:05:24.244Z,12.70
2023-02-07T07:08:30.182Z,12.50
2023-02-07T07:11:32.981Z,12.20
2023-02-07T07:14:57.538Z,13.30
2023-02-07T07:18:00.931Z,13.23
2023-02-07T07:21:03.650Z,11.07
2023-02-07T07:24:08.276Z,11.43
2023-02-07T07:27:10.962Z,12.67
2023-02-07T07:30:15.786Z,12.13
2023-02-07T07:33:18.497Z,13.10
2023-02-07T07:36:21.517Z,13.20
2023-02-07T07:39:24.296Z,14.17
2023-02-07T07:42:27.293Z,12.80
2023-02-07T07:45:31.401Z,13.47
2023-02-07T07:48:34.515Z,13.03
2023-02-07T07:51:37.308Z,12.57
2023-02-07T07:54:40.021Z,10.70
2023-02-07T07:57:42.715Z,13.37
2023-02-07T08:00:47.737Z,10.90
2023-02-07T08:03:51.568Z,11.77
2023-02-07T08:06:54.272Z,12.23
2023-02-07T08:09:57.382Z,12.40
2023-02-07T08:13:00.107Z,11.70
2023-02-07T08:16:08.616Z,11.90
2023-02-07T08:19:11.343Z,8.43
2023-02-07T08:22:18.089Z,16.50
2023-02-07T08:25:21.144Z,12.30
2023-02-07T08:28:28.078Z,13.40
2023-02-07T08:31:35.068Z,12.20
2023-02-07T08:34:42.735Z,21.50
2023-02-07T08:37:48.344Z,14.10
2023-02-07T08:40:56.888Z,12.33
2023-02-07T08:44:04.891Z,12.37
2023-02-07T08:47:08.920Z,9.27
2023-02-07T08:50:12.274Z,12.77
2023-02-07T08:53:14.966Z,11.60
2023-02-07T08:56:17.625Z,14.87
2023-02-07T08:59:20.318Z,10.93
2023-02-07T09:02:24.631Z,10.67
2023-02-07T09:05:27.478Z,6.33
2023-02-07T09:08:30.226Z,11.77
2023-02-07T09:11:33.298Z,10.43
2023-02-07T09:14:36.143Z,11.23
2023-02-07T09:17:40.234Z,11.63
2023-02-07T09:20:45.028Z,15.63
2023-02-07T09:23:49.964Z,12.00
2023-02-07T09:26:53.192Z,10.30
2023-02-07T09:29:56.269Z,12.60
2023-02-07T09:33:02.723Z,14.03
2023-02-07T09:36:06.531Z,23.63
2023-02-07T09:39:09.195Z,13.53
2023-02-07T09:42:24.602Z,11.50
2023-02-07T09:45:32.317Z,12.93
2023-02-07T09:48:49.388Z,11.70
2023-02-07T09:51:54.148Z,9.47
2023-02-07T09:55:00.795Z,11.40
2023-02-07T09:58:10.312Z,11.50
2023-02-07T10:01:16.494Z,8.60
2023-02-07T10:04:30.580Z,10.93
2023-02-07T10:07:34.182Z,13.20
2023-02-07T10:10:42.526Z,27.97
2023-02-07T10:14:17.631Z,11.90
2023-02-07T10:17:39.947Z,10.00
2023-02-07T10:21:00.821Z,7.13
2023-02-07T10:24:47.807Z,8.53
2023-02-07T10:28:05.367Z,9.13
2023-02-07T10:31:28.080Z,8.50
2023-02-07T10:34:36.416Z,6.30
2023-02-07T10:37:50.780Z,10.20
2023-02-07T10:40:57.298Z,12.10
2023-02-07T10:44:14.033Z,9.67
2023-02-07T10:47:20.095Z,8.37
2023-02-07T10:50:29.968Z,7.87
2023-02-07T10:53:55.103Z,9.10
2023-02-07T10:57:02.834Z,12.10
2023-02-07T11:00:23.154Z,8.73
2023-02-07T11:03:26.920Z,6.57
2023-02-07T11:06:32.031Z,9.97
2023-02-07T11:09:37.763Z,10.30
2023-02-07T11:12:47.060Z,7.07
2023-02-07T11:15:56.882Z,16.23
2023-02-07T11:19:01.889Z,8.07
2023-02-07T11:22:18.613Z,7.90
2023-02-07T11:25:29.354Z,9.27
2023-02-07T11:28:33.860Z,8.30
2023-02-07T11:31:38.671Z,8.97
2023-02-07T11:34:47.123Z,16.53
2023-02-07T11:38:02.065Z,9.53
2023-02-07T11:41:23.279Z,8.53
2023-02-07T11:44:29.614Z,8.70
2023-02-07T11:47:33.691Z,9.10
2023-02-07T11:50:39.733Z,8.73
2023-02-07T11:53:47.034Z,9.37
2023-02-07T11:56:53.694Z,9.97
2023-02-07T12:00:06.601Z,9.53
2023-02-07T12:03:24.676Z,8.80
2023-02-07T12:06:45.017Z,10.10
2023-02-07T12:09:50.338Z,9.30
2023-02-07T12:13:00.252Z,9.13
2023-02-07T12:16:08.021Z,9.13
2023-02-07T12:19:23.023Z,9.27
2023-02-07T12:22:32.578Z,4.87
2023-02-07T12:25:42.267Z,8.17
2023-02-07T12:29:12.809Z,8.10
2023-02-07T12:32:33.803Z,6.50
2023-02-07T12:35:57.452Z,7.87
2023-02-07T12:39:07.807Z,7.90
2023-02-07T12:42:26.325Z,7.37
2023-02-07T12:46:03.743Z,8.67
2023-02-07T12:49:23.161Z,8.20
2023-02-07T12:52:49.916Z,8.00
2023-02-07T12:56:05.600Z,7.70
2023-02-07T12:59:15.791Z,7.27
2023-02-07T13:02:41.661Z,7.77
2023-02-07T13:06:09.058Z,7.30
2023-02-07T13:09:17.790Z,7.50
2023-02-07T13:12:25.919Z,7.53
2023-02-07T13:15:38.722Z,7.47
2023-02-07T13:18:49.260Z,8.60
2023-02-07T13:21:57.641Z,7.30
2023-02-07T13:25:02.071Z,7.80
2023-02-07T13:28:09.347Z,5.27
2023-02-07T13:31:19.625Z,7.00
2023-02-07T13:34:28.952Z,6.73
2023-02-07T13:37:44.764Z,7.47
2023-02-07T13:40:56.637Z,5.23
2023-02-07T13:44:09.835Z,7.30
2023-02-07T13:47:38.112Z,7.30
2023-02-07T13:51:02.434Z,9.27
2023-02-07T13:54:19.677Z,7.60
2023-02-07T13:57:58.770Z,7.23
2023-02-07T14:01:11.177Z,6.17
2023-02-07T14:04:21.150Z,7.07
2023-02-07T14:07:29.687Z,7.80
2023-02-07T14:11:13.662Z,9.40
2023-02-07T14:14:26.157Z,12.27
2023-02-07T14:17:58.128Z,8.53
2023-02-07T14:21:02.250Z,13.63
2023-02-07T14:24:20.170Z,9.73
2023-02-07T14:27:32.299Z,7.70
2023-02-07T14:30:38.287Z,13.17
2023-02-07T14:33:41.395Z,8.67
2023-02-07T14:36:44.101Z,6.80
2023-02-07T14:39:49.720Z,9.00
2023-02-07T14:42:58.828Z,7.90
2023-02-07T14:46:10.244Z,7.87
2023-02-07T14:49:19.428Z,10.50
2023-02-07T14:52:24.628Z,21.93
2023-02-07T14:55:35.637Z,11.77
2023-02-07T14:58:43.361Z,9.60
2023-02-07T15:01:46.424Z,9.17
2023-02-07T15:04:52.170Z,8.57
2023-02-07T15:08:09.557Z,8.50
2023-02-07T15:11:14.851Z,8.20
2023-02-07T15:14:23.765Z,8.70
2023-02-07T15:17:39.319Z,18.43
2023-02-07T15:20:50.330Z,8.40
2023-02-07T15:23:58.654Z,9.17
2023-02-07T15:27:05.173Z,8.17
2023-02-07T15:30:11.566Z,7.90
2023-02-07T15:33:20.587Z,7.70
2023-02-07T15:36:32.640Z,7.83
2023-02-07T15:39:35.392Z,8.03
2023-02-07T15:42:50.433Z,7.77
2023-02-07T15:46:05.526Z,9.47
2023-02-07T15:49:09.108Z,8.03
2023-02-07T15:52:17.926Z,9.87
2023-02-07T15:55:28.209Z,10.10
2023-02-07T15:58:35.034Z,7.93
2023-02-07T16:01:39.259Z,8.57
2023-02-07T16:04:42.092Z,8.50
2023-02-07T16:07:48.150Z,8.93
2023-02-07T16:10:51.129Z,7.80
2023-02-07T16:13:56.424Z,8.80
2023-02-07T16:17:00.581Z,8.80
2023-02-07T16:20:03.639Z,6.53
2023-02-07T16:23:09.715Z,6.83
2023-02-07T16:26:13.289Z,7.53
2023-02-07T16:29:21.166Z,6.97
2023-02-07T16:32:33.835Z,6.27
2023-02-07T16:35:36.498Z,7.00
2023-02-07T16:38:39.138Z,8.00
2023-02-07T16:41:46.204Z,9.10
2023-02-07T16:44:50.275Z,8.73
2023-02-07T16:47:52.962Z,7.53
2023-02-07T16:50:55.794Z,27.17
2023-02-07T16:53:58.423Z,19.93
2023-02-07T16:57:03.954Z,15.63
2023-02-07T17:00:10.570Z,15.40
2023-02-07T17:03:15.878Z,14.63
2023-02-07T17:06:21.802Z,14.87
2023-02-07T17:09:26.636Z,14.17
2023-02-07T17:12:29.309Z,15.97
2023-02-07T17:15:33.769Z,13.00
2023-02-07T17:18:36.465Z,13.57
2023-02-07T17:21:39.191Z,16.17
2023-02-07T17:24:49.082Z,18.03
2023-02-07T17:27:56.967Z,17.37
2023-02-07T17:31:01.027Z,12.50
2023-02-07T17:34:04.331Z,12.50
2023-02-07T17:37:07.054Z,16.07
2023-02-07T17:40:24.330Z,16.67
2023-02-07T17:43:27.022Z,17.67
2023-02-07T17:46:31.118Z,21.67
2023-02-07T17:49:33.817Z,19.27
2023-02-07T17:52:36.466Z,16.60
2023-02-07T17:55:39.672Z,16.03
2023-02-07T17:58:42.347Z,18.93
2023-02-07T18:01:46.898Z,17.73
2023-02-07T18:04:51.610Z,16.63
2023-02-07T18:07:54.673Z,20.03
2023-02-07T18:11:02.069Z,21.83
2023-02-07T18:14:04.812Z,26.00
2023-02-07T18:17:08.785Z,27.33
2023-02-07T18:20:14.496Z,22.20
2023-02-07T18:23:17.211Z,17.30
2023-02-07T18:26:20.435Z,16.00
2023-02-07T18:29:23.184Z,16.17
2023-02-07T18:32:27.335Z,13.43
2023-02-07T18:35:30.131Z,13.73
2023-02-07T18:38:32.959Z,12.73
2023-02-07T18:41:35.635Z,13.90
2023-02-07T18:44:38.437Z,18.77
2023-02-07T18:47:45.131Z,20.17
2023-02-07T18:50:48.149Z,23.23
2023-02-07T18:53:51.775Z,17.67
2023-02-07T18:56:54.580Z,18.50
2023-02-07T18:59:57.267Z,18.07
2023-02-07T19:03:02.142Z,15.93
2023-02-07T19:06:06.621Z,18.43
2023-02-07T19:09:09.621Z,18.00
2023-02-07T19:12:12.343Z,18.97
2023-02-07T19:15:22.528Z,21.87
2023-02-07T19:18:26.528Z,21.97
2023-02-07T19:21:29.221Z,18.43
2023-02-07T19:24:33.135Z,14.33
2023-02-07T19:27:35.839Z,13.90
2023-02-07T19:30:41.058Z,16.57
2023-02-07T19:33:53.411Z,25.20
2023-02-07T19:36:56.663Z,27.03
2023-02-07T19:40:02.298Z,24.00
2023-02-07T19:43:04.961Z,20.10
2023-02-07T19:46:07.625Z,23.17
2023-02-07T19:49:12.607Z,19.00
2023-02-07T19:52:17.661Z,18.93
2023-02-07T19:55:20.437Z,15.50
2023-02-07T19:58:23.426Z,15.93
2023-02-07T20:01:27.397Z,18.37
2023-02-07T20:04:31.452Z,24.03
2023-02-07T20:07:34.200Z,20.70
2023-02-07T20:10:42.944Z,20.90
2023-02-07T20:13:48.148Z,20.10
2023-02-07T20:16:51.001Z,16.93
2023-02-07T20:19:55.049Z,15.97
2023-02-07T20:22:57.775Z,16.50
2023-02-07T20:26:04.455Z,16.03
2023-02-07T20:29:09.686Z,17.10
2023-02-07T20:32:14.815Z,16.60
2023-02-07T20:35:18.794Z,17.73
2023-02-07T20:38:21.454Z,18.37
2023-02-07T20:41:41.115Z,19.57
2023-02-07T20:44:43.747Z,24.70
2023-02-07T20:47:46.482Z,24.70
2023-02-07T20:50:57.670Z,23.03
2023-02-07T20:54:03.120Z,20.00
2023-02-07T20:57:05.826Z,17.10
2023-02-07T21:00:09.957Z,17.23
2023-02-07T21:03:12.667Z,16.77
2023-02-07T21:06:17.750Z,16.00
2023-02-07T21:09:20.652Z,18.17
2023-02-07T21:12:23.559Z,21.47
2023-02-07T21:15:26.228Z,20.93
2023-02-07T21:18:29.544Z,18.07
2023-02-07T21:21:33.607Z,18.33
2023-02-07T21:24:36.492Z,21.23
2023-02-07T21:27:39.328Z,19.47
2023-02-07T21:30:42.446Z,18.40
2023-02-07T21:33:45.368Z,20.83
2023-02-07T21:36:50.756Z,18.03
2023-02-07T21:39:53.414Z,20.60
2023-02-07T21:42:56.340Z,20.30
2023-02-07T21:46:04.345Z,16.70
2023-02-07T21:49:09.106Z,21.07
2023-02-07T21:52:13.248Z,15.50
2023-02-07T21:55:16.133Z,15.63
2023-02-07T21:58:18.808Z,16.90
2023-02-07T22:01:23.379Z,18.57
2023-02-07T22:04:26.100Z,15.63
2023-02-07T22:07:30.150Z,15.00
2023-02-07T22:10:32.816Z,16.93
2023-02-07T22:13:37.617Z,16.37
2023-02-07T22:16:41.095Z,12.97
2023-02-07T22:19:43.847Z,12.90
2023-02-07T22:23:07.313Z,14.07
2023-02-07T22:26:10.211Z,11.63
2023-02-07T22:29:13.315Z,13.07
2023-02-07T22:32:16.229Z,12.97
2023-02-07T22:35:18.875Z,12.93
2023-02-07T22:38:23.005Z,13.60
2023-02-07T22:41:25.687Z,13.80
2023-02-07T22:44:28.454Z,13.83
2023-02-07T22:47:31.120Z,15.57
2023-02-07T22:50:33.976Z,12.37
2023-02-07T22:53:40.004Z,14.90
2023-02-07T22:56:46.187Z,12.10
2023-02-07T23:00:03.014Z,12.17
2023-02-07T23:03:05.771Z,12.40
2023-02-07T23:06:08.855Z,11.20
2023-02-07T23:09:13.082Z,10.83
2023-02-07T23:12:16.026Z,10.63
2023-02-07T23:15:18.740Z,12.63
2023-02-07T23:18:21.437Z,13.27
2023-02-07T23:21:25.714Z,12.97
2023-02-07T23:24:29.896Z,13.20
2023-02-07T23:27:32.631Z,12.67
2023-02-07T23:30:36.191Z,12.10
2023-02-07T23:33:41.864Z,12.43
2023-02-07T23:36:49.024Z,12.10
2023-02-07T23:39:53.045Z,10.57
2023-02-07T23:42:56.630Z,10.40
2023-02-07T23:45:59.315Z,10.90
2023-02-07T23:49:02.376Z,10.93
2023-02-07T23:52:05.414Z,10.47
2023-02-07T23:55:09.547Z,11.47
2023-02-07T23:58:12.268Z,11.40
